• Join FlightAware (Why Join?)
  • Login
  • US Flag 
05:33PM EST


 

Airport Tracker/Info


-or-


 

Live Flight TrackerFlight Track Log ✈ UAL4202 ✈ 11-Apr-2013 ✈ KEWR - KSTL

Flight Track Log - Related Links

Times and Time Zones

All times are in EDT time to prevent confusion due to time zone crossing. See the UAL4202 flight status page for this flight to view local times or setup timezone preferences in your user account.

Time Position Orientation Groundspeed Altitude Reporting Facility
EDT Latitude Longitude Course Direction KTS MPH feet Rate Location/Type
05:59PM 40.7167 -74.1500 276° West 165 190 1,400  Level New York TRACON
06:00PM 40.7500 -74.1000 49° Northeast 204 235 3,000 1,800 Climbing New York TRACON
06:01PM 40.8000 -74.1333 333° Northwest 252 290 5,000 2,100 Climbing New York TRACON
06:02PM 40.7341 -74.5256 277° West  Level FlightAware Approximate
06:02PM 40.8000 -74.2167 270° West 237 273 7,300  Level New York TRACON
06:03PM 40.7456 -74.6514 277° West  Level FlightAware Approximate
06:04PM 40.7560 -74.7774 276° West  Level FlightAware Approximate
06:04PM 40.8094 -74.4231 274° West 255 293 11,700  Level New York Center
06:05PM 40.7657 -74.9035 276° West  Level FlightAware Approximate
06:05PM 40.8083 -74.5217 269° West 267 307 12,700  Level New York Center
06:06PM 40.8069 -74.6311 269° West 290 334 13,900 1,080 Climbing New York Center
06:07PM 40.8072 -74.7492 270° West 306 352 14,900 1,200 Climbing New York Center
06:08PM 40.8031 -74.8639 267° West 317 365 16,400 1,500 Climbing New York Center
06:09PM 40.7764 -74.9719 252° West 322 371 18,000 1,560 Climbing New York Center
06:10PM 40.7497 -75.0744 251° West 311 358 19,600 1,380 Climbing New York Center
06:11PM 40.7397 -75.1806 263° West 304 350 20,800 1,080 Climbing New York Center
06:12PM 40.7289 -75.2978 263° West 304 350 21,800 1,020 Climbing New York Center
06:13PM 40.7122 -75.4089 259° West 312 359 22,900 1,020 Climbing New York Center
06:14PM 40.6764 -75.5239 248° West 324 373 23,900 900 Climbing New York Center
06:15PM 40.6383 -75.6364 246° West 335 386 24,800 960 Climbing New York Center
06:16PM 40.6003 -75.7511 246° West 340 391 25,900 1,020 Climbing New York Center
06:17PM 40.5600 -75.8683 246° West 347 399 26,900 900 Climbing New York Center
06:18PM 40.5197 -75.9747 244° Southwest 352 405 27,800 960 Climbing New York Center
06:19PM 40.4792 -76.0889 245° Southwest 352 405 28,800 960 Climbing New York Center
06:20PM 40.4428 -76.2033 247° West 352 405 29,800 960 Climbing New York Center
06:21PM 40.4022 -76.3175 245° Southwest 352 405 30,800 1,020 Climbing New York Center
06:22PM 40.3633 -76.4289 245° Southwest 352 405 31,900 1,140 Climbing New York Center
06:23PM 40.3225 -76.5425 245° Southwest 347 399 33,100 1,200 Climbing New York Center
06:24PM 40.2797 -76.6506 243° Southwest 347 399 34,300 1,080 Climbing New York Center
06:25PM 40.2367 -76.7583 242° Southwest 341 392 35,400 840 Climbing New York Center
06:26PM 40.1942 -76.8581 241° Southwest 329 379 36,000 300 Climbing New York Center
06:27PM 40.1508 -76.9683 243° Southwest 329 379 36,000  Level New York Center
06:28PM 40.1094 -77.0814 244° Southwest 341 392 36,000  Level New York Center
06:29PM 40.0614 -77.1964 241° Southwest 359 413 36,000  Level New York Center
06:30PM 40.0133 -77.3167 242° Southwest 364 419 36,000  Level New York Center
06:31PM 39.9650 -77.4342 242° Southwest 370 426 36,000  Level New York Center
06:33PM 39.9664 -77.7197 270° West 355 409 36,000  Level Cleveland Center
06:34PM 39.9697 -77.8525 272° West 371 427 36,000  Level Cleveland Center
06:35PM 39.9731 -77.9878 272° West 376 433 36,000  Level Cleveland Center
06:36PM 39.9761 -78.1258 272° West 376 433 36,000  Level Cleveland Center
06:37PM 39.9789 -78.2639 272° West 387 445 36,000  Level Cleveland Center
06:38PM 39.9814 -78.3911 272° West 382 440 36,000  Level Cleveland Center
06:39PM 39.9861 -78.5319 273° West 387 445 36,000  Level Cleveland Center
06:40PM 39.9886 -78.6756 271° West 387 445 36,000  Level Cleveland Center
06:41PM 39.9908 -78.8164 271° West 387 445 36,000  Level Cleveland Center
06:42PM 39.9950 -78.9572 272° West 387 445 36,000  Level Cleveland Center
06:43PM 40.0014 -79.1086 273° West 387 445 36,000  Level Cleveland Center
06:44PM 40.0008 -79.2442 270° West 382 440 36,000  Level Cleveland Center
06:45PM 40.0044 -79.3797 272° West 382 440 36,000  Level Cleveland Center
06:46PM 40.0081 -79.5206 272° West 382 440 36,000  Level Cleveland Center
06:47PM 40.0092 -79.6589 271° West 382 440 36,000  Level Cleveland Center
06:48PM 40.0103 -79.7997 271° West 382 440 36,000  Level Cleveland Center
06:49PM 40.0133 -79.9381 272° West 382 440 36,000  Level Cleveland Center
06:50PM 40.0139 -80.0761 270° West 382 440 36,000  Level Cleveland Center
06:51PM 40.0167 -80.2117 272° West 382 440 36,000  Level Cleveland Center
06:52PM 40.0169 -80.3472 270° West 382 440 36,000  Level Cleveland Center
06:53PM 40.0192 -80.4856 271° West 382 440 36,000  Level Cleveland Center
06:54PM 40.0192 -80.6211 270° West 382 440 36,000  Level Cleveland Center
06:56PM 40.0164 -80.8206 269° West 380 437 36,000  Level Indianapolis Center
06:57PM 40.0142 -80.9578 269° West 376 433 36,000  Level Indianapolis Center
06:58PM 40.0125 -81.1167 269° West 373 429 36,000  Level Indianapolis Center
06:59PM 40.0100 -81.2533 269° West 374 430 36,000  Level Indianapolis Center
07:00PM 40.0083 -81.3864 269° West 365 420 36,000  Level Indianapolis Center
07:01PM 40.0053 -81.5161 268° West 357 411 36,000  Level Indianapolis Center
07:02PM 40.0033 -81.6447 269° West 351 404 36,000  Level Indianapolis Center
07:03PM 40.0000 -81.7800 268° West 349 402 36,000  Level Indianapolis Center
07:04PM 39.9969 -81.9111 268° West 358 412 36,000  Level Indianapolis Center
07:05PM 39.9944 -82.0422 269° West 359 413 36,000  Level Indianapolis Center
07:06PM 39.9908 -82.1753 268° West 364 419 36,000 -60 Level Indianapolis Center
07:07PM 39.9869 -82.3328 268° West 371 427 35,900  Descending Indianapolis Center
07:08PM 39.9833 -82.4697 268° West 374 430 36,000  Climbing Indianapolis Center
07:09PM 39.9797 -82.6064 268° West 374 430 36,000  Level Indianapolis Center
07:11PM 39.9753 -82.7436 268° West 377 434 36,000  Level Indianapolis Center
07:12PM 39.9714 -82.8831 268° West 381 438 36,000  Level Indianapolis Center
07:13PM 39.9667 -83.0222 268° West 382 440 36,000  Level Indianapolis Center
07:14PM 39.9636 -83.1619 268° West 384 442 36,000  Level Indianapolis Center
07:15PM 39.9594 -83.3211 268° West 375 432 36,000  Level Indianapolis Center
07:16PM 39.9556 -83.4539 268° West 370 426 36,000  Level Indianapolis Center
07:17PM 39.9494 -83.5878 267° West 376 433 36,000  Level Indianapolis Center
07:18PM 39.9442 -83.7236 267° West 376 433 36,000  Level Indianapolis Center
07:19PM 39.9394 -83.8628 268° West 383 441 36,000  Level Indianapolis Center
07:20PM 39.9331 -84.0261 267° West 383 441 36,000  Level Indianapolis Center
07:21PM 39.9278 -84.1617 267° West 375 432 36,000  Level Indianapolis Center
07:22PM 39.9228 -84.2922 267° West 362 417 36,000 -60 Level Indianapolis Center
07:23PM 39.9167 -84.4200 266° West 354 407 35,900  Descending Indianapolis Center
07:24PM 39.9100 -84.5486 266° West 352 405 36,000  Climbing Indianapolis Center
07:25PM 39.9050 -84.6781 267° West 355 409 36,000  Level Indianapolis Center
07:26PM 39.8986 -84.8117 266° West 365 420 36,000  Level Indianapolis Center
07:27PM 39.8908 -84.9672 266° West 367 422 36,000  Level Indianapolis Center
07:28PM 39.8844 -85.1031 267° West 372 428 36,000  Level Indianapolis Center
07:29PM 39.8767 -85.2400 266° West 375 432 36,000  Level Indianapolis Center
07:30PM 39.8700 -85.3769 266° West 377 434 36,000  Level Indianapolis Center
07:31PM 39.8628 -85.5131 266° West 376 433 36,000  Level Indianapolis Center
07:32PM 39.8514 -85.6456 264° West 368 423 36,000  Level Indianapolis Center
07:33PM 39.8286 -85.7700 257° West 355 409 36,000  Level Indianapolis Center
07:34PM 39.8047 -85.8933 256° West 350 403 36,000  Level Indianapolis Center
07:35PM 39.7808 -86.0208 256° West 348 400 36,000  Level Indianapolis Center
07:36PM 39.7450 -86.1358 248° West 344 396 36,000  Level Indianapolis Center
07:37PM 39.7100 -86.2822 253° West 353 406 36,000  Level Indianapolis Center
07:38PM 39.6881 -86.4067 257° West 354 407 36,000  Level Indianapolis Center
07:39PM 39.6669 -86.5306 258° West 353 406 36,000  Level Indianapolis Center
07:40PM 39.6447 -86.6522 257° West 349 402 36,000  Level Indianapolis Center
07:41PM 39.6236 -86.7733 257° West 344 396 36,000  Level Indianapolis Center
07:43PM 39.6028 -86.8942 257° West 343 395 36,000  Level Indianapolis Center
07:44PM 39.5808 -87.0156 257° West 344 396 36,000 -300 Level Indianapolis Center
07:45PM 39.5597 -87.1375 257° West 346 398 35,500 -1,020 Descending Indianapolis Center
07:46PM 39.5319 -87.2881 257° West 356 410 33,900 -1,500 Descending Indianapolis Center
07:47PM 39.5081 -87.4172 257° West 366 421 32,500 -1,560 Descending Indianapolis Center
07:48PM 39.4839 -87.5519 257° West 382 440 30,800 -1,620 Descending Indianapolis Center
07:49PM 39.4581 -87.6889 256° West 390 449 29,200 -1,380 Descending Indianapolis Center
07:50PM 39.4333 -87.8256 257° West 391 450 28,000 -600 Descending Indianapolis Center
07:51PM 39.4069 -87.9625 256° West 386 444 28,000  Level Kansas City Center
07:52PM 39.3803 -88.0889 255° West 373 429 28,000 -600 Level Kansas City Center
07:53PM 39.3483 -88.2136 252° West 368 423 26,800 -1,500 Descending Kansas City Center
07:54PM 39.3050 -88.3714 251° West 383 441 24,900 -1,380 Descending Kansas City Center
07:55PM 39.2717 -88.4958 251° West 371 427 24,000 -480 Descending Kansas City Center
07:56PM 39.2419 -88.6086 251° West 365 420 24,000 -300 Level Kansas City Center
07:57PM 39.2097 -88.7294 251° West 359 413 23,500 -1,020 Descending Kansas City Center
07:58PM 39.1769 -88.8486 250° West 356 410 21,900 -1,920 Descending Kansas City Center
07:59PM 39.1397 -88.9925 252° West 356 410 19,500 -2,280 Descending Kansas City Center
08:00PM 39.1050 -89.1200 251° West 352 405 17,200 -2,160 Descending Kansas City Center
08:01PM 39.0767 -89.1878 242° Southwest 353 406 15,100 -2,100 Descending FAA TRACON SMA TRACON (SMA)
08:01PM 39.0689 -89.2253 255° West 354 407 14,500 -1,800 Descending FAA TRACON SMA TRACON (SMA)
08:02PM 39.0581 -89.2617 249° West 353 406 13,900 -2,100 Descending FAA TRACON SMA TRACON (SMA)
08:02PM 39.0475 -89.3081 254° West 352 405 13,100 -2,160 Descending FAA TRACON SMA TRACON (SMA)
08:02PM 39.0383 -89.3433 252° West 342 394 12,500 -2,100 Descending FAA TRACON SMA TRACON (SMA)
08:03PM 39.0294 -89.3878 256° West 335 386 11,700 -1,800 Descending FAA TRACON SMA TRACON (SMA)
08:03PM 39.0214 -89.4228 254° West 332 382 11,300 -1,080 Descending FAA TRACON SMA TRACON (SMA)
08:03PM 39.0133 -89.4578 254° West 331 381 11,000 -480 Descending FAA TRACON SMA TRACON (SMA)
08:04PM 39.0050 -89.4922 253° West 330 380 11,000  Level FAA TRACON SMA TRACON (SMA)
08:04PM 38.9931 -89.5350 250° West 331 381 11,000 -180 Level FAA TRACON SMA TRACON (SMA)
08:04PM 38.9772 -89.5619 233° Southwest 317 365 10,900 -780 Descending FAA TRACON SMA TRACON (SMA)
08:05PM 38.9500 -89.5811 209° Southwest 300 345 10,500 -1,260 Descending FAA TRACON SMA TRACON (SMA)
08:05PM 38.9300 -89.5958 210° Southwest 287 330 10,100 -1,440 Descending FAA TRACON SMA TRACON (SMA)
08:05PM 38.9103 -89.6097 209° Southwest 271 312 9,600 -1,800 Descending FAA TRACON SMA TRACON (SMA)
08:06PM 38.8869 -89.6267 209° Southwest 256 295 8,900 -1,620 Descending FAA TRACON SMA TRACON (SMA)
08:06PM 38.8675 -89.6397 208° Southwest 254 292 8,500 -780 Descending FAA TRACON SMA TRACON (SMA)
08:06PM 38.8497 -89.6517 208° Southwest 243 280 8,400 -480 Descending FAA TRACON SMA TRACON (SMA)
08:07PM 38.8303 -89.6653 209° Southwest 222 255 8,200 -780 Descending FAA TRACON SMA TRACON (SMA)
08:07PM 38.8158 -89.6758 210° Southwest 207 238 7,900 -1,080 Descending FAA TRACON SMA TRACON (SMA)
08:07PM 38.7994 -89.6861 206° Southwest 200 230 7,500 -1,140 Descending FAA TRACON SMA TRACON (SMA)
08:08PM 38.7814 -89.6975 206° Southwest 195 224 7,100 -720 Descending FAA TRACON SMA TRACON (SMA)
08:08PM 38.7647 -89.7067 203° Southwest 197 227 7,000 -180 Descending FAA TRACON SMA TRACON (SMA)
08:08PM 38.7494 -89.7156 204° Southwest 200 230 7,000  Level FAA TRACON SMA TRACON (SMA)
08:09PM 38.7303 -89.7272 205° Southwest 200 230 7,000 -180 Level FAA TRACON SMA TRACON (SMA)
08:09PM 38.7153 -89.7358 204° Southwest 198 228 6,900 -660 Descending FAA TRACON SMA TRACON (SMA)
08:09PM 38.7011 -89.7442 205° Southwest 188 216 6,600 -1,200 Descending FAA TRACON SMA TRACON (SMA)
08:10PM 38.6833 -89.7550 205° Southwest 181 208 6,100 -1,320 Descending FAA TRACON SMA TRACON (SMA)
08:10PM 38.6700 -89.7631 205° Southwest 179 206 5,700 -1,200 Descending FAA TRACON SMA TRACON (SMA)
08:10PM 38.6542 -89.7714 202° Southwest 188 216 5,300 -1,080 Descending FAA TRACON SMA TRACON (SMA)
08:11PM 38.6344 -89.7817 202° Southwest 195 224 5,000 -480 Descending FAA TRACON SMA TRACON (SMA)
08:11PM 38.6206 -89.7906 207° Southwest 193 222 5,000  Level FAA TRACON SMA TRACON (SMA)
08:11PM 38.6097 -89.8056 227° Southwest 201 231 5,000  Level FAA TRACON SMA TRACON (SMA)
08:12PM 38.6097 -89.8261 270° West 196 226 5,000  Level FAA TRACON SMA TRACON (SMA)
08:12PM 38.6136 -89.8517 281° West 190 219 5,000  Level FAA TRACON SMA TRACON (SMA)
08:12PM 38.6156 -89.8731 277° West 194 223 5,000  Level FAA TRACON SMA TRACON (SMA)
08:13PM 38.6181 -89.8933 279° West 190 219 5,000  Level FAA TRACON SMA TRACON (SMA)
08:13PM 38.6208 -89.9156 279° West 170 196 5,000  Level FAA TRACON SMA TRACON (SMA)
08:13PM 38.6219 -89.9381 274° West 162 186 5,000  Level FAA TRACON SMA TRACON (SMA)
08:14PM 38.6222 -89.9517 272° West 165 190 5,000  Level FAA TRACON SMA TRACON (SMA)
08:14PM 38.6225 -89.9742 271° West 166 191 5,000 -180 Level FAA TRACON SMA TRACON (SMA)
08:14PM 38.6225 -89.9919 270° West 162 186 4,900 -1,080 Descending FAA TRACON SMA TRACON (SMA)
08:15PM 38.6222 -90.0114 269° West 172 198 4,300 -1,440 Descending FAA TRACON SMA TRACON (SMA)
08:15PM 38.6228 -90.0361 272° West 180 207 4,000 -900 Descending FAA TRACON SMA TRACON (SMA)
08:15PM 38.6228 -90.0544 270° West 176 203 3,700 -600 Descending FAA TRACON SMA TRACON (SMA)
08:16PM 38.6281 -90.0711 292° West 171 197 3,600 -360 Descending FAA TRACON SMA TRACON (SMA)
08:16PM 38.6375 -90.0886 305° West 159 183 3,500 -180 Descending FAA TRACON SMA TRACON (SMA)
08:16PM 38.6444 -90.1033 301° West 154 177 3,500  Level FAA TRACON SMA TRACON (SMA)
08:17PM 38.6522 -90.1181 304° West 162 186 3,500 -180 Level FAA TRACON SMA TRACON (SMA)
08:17PM 38.6614 -90.1372 301° West 163 188 3,400 -600 Descending FAA TRACON SMA TRACON (SMA)
08:17PM 38.6689 -90.1517 304° West 160 184 3,100 -900 Descending FAA TRACON SMA TRACON (SMA)
08:18PM 38.6758 -90.1669 300° West 161 185 2,800 -960 Descending FAA TRACON SMA TRACON (SMA)
08:18PM 38.6853 -90.1850 304° West 159 183 2,500 -900 Descending FAA TRACON SMA TRACON (SMA)
08:18PM 38.6925 -90.2003 301° West 161 185 2,200 -900 Descending FAA TRACON SMA TRACON (SMA)
08:19PM 38.6997 -90.2153 302° West 164 189 1,900 -960 Descending FAA TRACON SMA TRACON (SMA)
08:19PM 38.7078 -90.2314 303° West 145 167 1,600 -780 Descending FAA TRACON SMA TRACON (SMA)
08:19PM 38.7136 -90.2428 303° West 129 148 1,400 -600 Descending FAA TRACON SMA TRACON (SMA)
08:20PM 38.7194 -90.2544 303° West 122 140 1,200 -720 Descending FAA TRACON SMA TRACON (SMA)
08:20PM 38.7261 -90.2686 301° West 122 140 900 -720 Descending FAA TRACON SMA TRACON (SMA)
08:20PM 38.7319 -90.2803 303° West 125 144 700 -600 Descending FAA TRACON SMA TRACON (SMA)